Time;durP1;ratioP1;P1;durP2;ratioP2;P2;SDS_P1;SDS_P2;PMS_P1;PMS_P2;Temp;Humidity;BMP_temperature;BMP_pressure;BME280_temperature;BME280_humidity;BME280_pressure;Samples;Min_cycle;Max_cycle;Signal;HPM_P1;HPM_P2
2022/10/08 00:00:55;;;;;;;6.03;5.00;;;17.20;99.90;;;;;;7396279;19;20131;-79
2022/10/08 00:03:22;;;;;;;7.43;4.97;;;17.20;99.90;;;;;;7395454;19;20130;-80
2022/10/08 00:06:02;;;;;;;7.55;4.93;;;17.10;99.90;;;;;;7394166;19;20138;-80
2022/10/08 00:08:30;;;;;;;6.80;4.30;;;17.20;99.90;;;;;;7395072;19;20151;-80
2022/10/08 00:10:59;;;;;;;9.57;5.15;;;17.30;99.90;;;;;;7396103;19;20137;-80
2022/10/08 00:13:26;;;;;;;8.70;5.03;;;17.30;99.90;;;;;;7395466;19;20604;-81
2022/10/08 00:15:53;;;;;;;5.60;4.50;;;17.20;99.90;;;;;;7394579;19;20151;-79
2022/10/08 00:18:20;;;;;;;5.20;4.32;;;17.10;99.90;;;;;;7391063;19;20182;-79
2022/10/08 00:20:47;;;;;;;5.80;4.65;;;17.20;99.90;;;;;;7395971;19;20154;-79
2022/10/08 00:23:15;;;;;;;6.95;5.13;;;17.20;99.90;;;;;;7392290;19;20561;-79
2022/10/08 00:25:44;;;;;;;5.78;5.13;;;17.20;99.90;;;;;;7392318;19;20218;-79
2022/10/08 00:28:12;;;;;;;8.98;5.07;;;17.40;99.90;;;;;;7392528;19;21048;-79
2022/10/08 00:30:39;;;;;;;7.93;5.32;;;17.40;99.90;;;;;;7389349;19;20154;-79
2022/10/08 00:33:07;;;;;;;5.97;5.28;;;17.40;99.90;;;;;;7393729;19;20215;-80
2022/10/08 00:35:42;;;;;;;8.30;5.03;;;17.30;99.90;;;;;;7393884;19;20133;-80
2022/10/08 00:38:14;;;;;;;6.22;4.57;;;17.40;99.90;;;;;;7394310;19;20481;-80
2022/10/08 00:40:58;;;;;;;7.30;4.70;;;17.20;99.90;;;;;;7393654;19;20202;-79
2022/10/08 00:43:36;;;;;;;6.80;4.93;;;17.10;99.90;;;;;;7392079;19;20146;-79
2022/10/08 00:46:16;;;;;;;6.00;4.72;;;17.20;99.90;;;;;;7392434;19;20609;-80
2022/10/08 00:48:43;;;;;;;6.18;5.05;;;17.10;99.90;;;;;;7392744;19;20515;-80
2022/10/08 00:51:09;;;;;;;8.23;4.65;;;17.10;99.90;;;;;;7391909;19;20539;-81
2022/10/08 00:53:35;;;;;;;11.50;5.70;;;17.30;99.90;;;;;;7393980;19;20553;-78
2022/10/08 00:56:02;;;;;;;9.27;4.75;;;17.30;99.90;;;;;;7392342;19;20139;-80
2022/10/08 00:58:30;;;;;;;7.35;4.72;;;17.40;99.90;;;;;;7390429;19;20184;-80
2022/10/08 01:03:32;;;;;;;7.35;5.47;;;17.40;99.90;;;;;;7323147;19;20533;-80
2022/10/08 01:06:26;;;;;;;15.32;7.60;;;17.30;99.90;;;;;;7380688;19;20204;-80
2022/10/08 01:09:01;;;;;;;7.45;6.38;;;17.40;99.90;;;;;;7384463;19;20134;-80
2022/10/08 01:11:59;;;;;;;9.63;7.00;;;17.30;99.90;;;;;;7391347;19;20130;-80
2022/10/08 01:14:43;;;;;;;10.43;6.90;;;17.20;99.90;;;;;;7390156;19;20138;-79
2022/10/08 01:17:21;;;;;;;11.30;5.97;;;17.00;99.90;;;;;;7389615;19;20161;-79
2022/10/08 01:19:53;;;;;;;7.85;5.50;;;16.90;99.90;;;;;;7385416;19;20138;-80
2022/10/08 01:22:31;;;;;;;6.97;5.32;;;16.90;99.90;;;;;;7391997;19;20614;-80
2022/10/08 01:25:34;;;;;;;8.88;6.20;;;17.00;99.90;;;;;;7384977;19;20150;-81
2022/10/08 01:28:26;;;;;;;7.78;5.85;;;17.00;99.90;;;;;;7381796;19;20157;-80
2022/10/08 01:31:04;;;;;;;8.88;5.90;;;17.00;99.90;;;;;;7386990;19;20470;-80
2022/10/08 01:33:39;;;;;;;9.35;5.97;;;16.90;99.90;;;;;;7388427;19;20576;-81
2022/10/08 01:36:07;;;;;;;8.05;6.15;;;16.90;99.90;;;;;;7387407;19;20241;-79
2022/10/08 01:38:41;;;;;;;10.77;6.13;;;17.00;99.90;;;;;;7388405;19;20142;-80
2022/10/08 01:41:10;;;;;;;10.07;6.43;;;17.00;99.90;;;;;;7387807;19;20134;-80
2022/10/08 01:43:42;;;;;;;9.10;6.35;;;16.90;99.90;;;;;;7387825;19;20489;-80
2022/10/08 01:46:21;;;;;;;8.23;6.18;;;16.90;99.90;;;;;;7388283;19;20624;-80
2022/10/08 01:48:50;;;;;;;10.52;6.18;;;16.90;99.90;;;;;;7386214;19;20153;-80
2022/10/08 01:51:22;;;;;;;9.65;6.53;;;16.90;99.90;;;;;;7387613;19;20142;-80
2022/10/08 01:53:50;;;;;;;8.65;6.68;;;16.90;99.90;;;;;;7385142;19;20262;-80
2022/10/08 01:56:21;;;;;;;9.05;6.05;;;16.90;99.90;;;;;;7389978;19;20163;-81
2022/10/08 01:59:11;;;;;;;11.40;7.13;;;16.90;99.90;;;;;;7387569;19;20160;-80
2022/10/08 02:01:57;;;;;;;12.18;6.30;;;16.80;99.90;;;;;;7386132;19;20154;-79
2022/10/08 02:04:33;;;;;;;9.27;6.50;;;16.70;99.90;;;;;;7383472;19;20177;-80
2022/10/08 02:07:35;;;;;;;8.15;5.95;;;16.60;99.90;;;;;;7387901;19;20130;-80
2022/10/08 02:10:13;;;;;;;8.57;6.10;;;16.60;99.90;;;;;;7387077;19;20163;-80
2022/10/08 02:12:40;;;;;;;11.35;6.28;;;16.60;99.90;;;;;;7388431;19;20145;-80
2022/10/08 02:15:12;;;;;;;8.13;5.95;;;16.60;99.90;;;;;;7387715;19;20158;-80
2022/10/08 02:17:53;;;;;;;11.75;6.22;;;16.60;99.90;;;;;;7387101;19;20537;-80
2022/10/08 02:20:37;;;;;;;7.43;6.07;;;16.60;99.90;;;;;;7393590;19;20143;-80
2022/10/08 02:23:05;;;;;;;10.02;6.20;;;16.60;99.90;;;;;;7394716;19;20175;-78
2022/10/08 02:25:39;;;;;;;9.05;6.07;;;16.60;99.90;;;;;;7395739;19;20142;-79
2022/10/08 02:28:22;;;;;;;10.90;6.10;;;16.60;99.90;;;;;;7394699;19;20226;-81
2022/10/08 02:31:00;;;;;;;9.93;5.78;;;16.60;99.90;;;;;;7396066;19;20587;-80
2022/10/08 02:33:32;;;;;;;7.80;5.72;;;16.60;99.90;;;;;;7395856;19;20612;-80
2022/10/08 02:36:00;;;;;;;6.45;5.75;;;16.60;99.90;;;;;;7392347;19;20138;-80
2022/10/08 02:38:52;;;;;;;9.75;5.80;;;16.60;99.90;;;;;;7394411;19;20592;-80
2022/10/08 02:41:25;;;;;;;9.05;5.90;;;16.70;99.90;;;;;;7394458;19;20172;-80
2022/10/08 02:43:54;;;;;;;8.27;6.40;;;16.70;99.90;;;;;;7391768;19;20144;-79
2022/10/08 02:46:22;;;;;;;9.40;6.00;;;16.60;99.90;;;;;;7393636;19;20153;-79
2022/10/08 02:49:09;;;;;;;7.38;5.75;;;16.60;99.90;;;;;;7392092;19;20146;-79
2022/10/08 02:51:40;;;;;;;8.25;5.82;;;16.40;99.90;;;;;;7393888;19;20324;-79
2022/10/08 02:54:07;;;;;;;9.48;5.82;;;16.40;99.90;;;;;;7393631;19;20480;-79
2022/10/08 02:56:56;;;;;;;6.88;4.95;;;16.50;99.90;;;;;;7394022;19;20435;-79
2022/10/08 02:59:24;;;;;;;8.98;5.60;;;16.40;99.90;;;;;;7394033;19;20131;-81
2022/10/08 03:01:58;;;;;;;9.02;5.80;;;16.30;99.90;;;;;;7391582;19;20151;-83
2022/10/08 03:04:31;;;;;;;8.50;5.78;;;16.50;99.90;;;;;;7389263;19;20634;-82
2022/10/08 03:06:58;;;;;;;9.38;6.07;;;16.60;99.90;;;;;;7384149;19;20162;-83
2022/10/08 03:09:31;;;;;;;7.70;5.97;;;16.60;99.90;;;;;;7391659;19;20143;-82
2022/10/08 03:11:59;;;;;;;7.18;5.85;;;16.70;99.90;;;;;;7393046;19;20623;-82
2022/10/08 03:14:25;;;;;;;10.20;6.40;;;16.60;99.90;;;;;;7392544;19;20142;-82
2022/10/08 03:16:52;;;;;;;7.60;5.50;;;16.50;99.90;;;;;;7392695;19;20138;-82
2022/10/08 03:19:19;;;;;;;9.95;5.75;;;16.50;99.90;;;;;;7391840;19;20553;-81
2022/10/08 03:21:48;;;;;;;9.77;6.85;;;16.50;99.90;;;;;;7392385;19;20139;-82
2022/10/08 03:24:14;;;;;;;10.85;6.55;;;16.40;99.90;;;;;;7391287;19;20159;-81
2022/10/08 03:26:41;;;;;;;10.10;6.38;;;16.50;99.90;;;;;;7394616;19;20135;-82
2022/10/08 03:29:09;;;;;;;13.07;6.47;;;16.50;99.90;;;;;;7391554;19;20146;-82
2022/10/08 03:31:35;;;;;;;10.50;6.07;;;16.50;99.90;;;;;;7389663;19;20135;-82
2022/10/08 03:34:01;;;;;;;8.63;6.35;;;16.40;99.90;;;;;;7390989;19;20162;-82
2022/10/08 03:36:28;;;;;;;6.32;4.97;;;16.40;99.90;;;;;;7392884;19;20150;-82
2022/10/08 03:38:54;;;;;;;8.25;5.88;;;16.10;99.90;;;;;;7389511;19;20134;-81
2022/10/08 03:41:19;;;;;;;8.52;5.45;;;16.20;99.90;;;;;;7393189;19;20139;-82
2022/10/08 03:43:45;;;;;;;10.73;5.60;;;16.40;99.90;;;;;;7393239;19;20139;-82
2022/10/08 03:46:13;;;;;;;7.97;5.47;;;16.50;99.90;;;;;;7391067;19;20175;-82
2022/10/08 03:48:41;;;;;;;8.95;5.97;;;16.70;99.90;;;;;;7390854;19;20146;-82
2022/10/08 03:51:11;;;;;;;7.38;5.30;;;16.60;99.90;;;;;;7391283;19;20162;-83
2022/10/08 03:53:38;;;;;;;7.28;5.72;;;16.50;99.90;;;;;;7391452;19;20154;-82
2022/10/08 03:56:08;;;;;;;7.70;5.63;;;16.60;99.90;;;;;;7389847;19;20138;-83
2022/10/08 03:58:34;;;;;;;9.20;5.93;;;16.50;99.90;;;;;;7390162;19;20159;-82
2022/10/08 04:01:06;;;;;;;7.55;5.40;;;16.70;99.90;;;;;;7390624;19;20136;-82
2022/10/08 04:03:32;;;;;;;7.40;5.32;;;16.60;99.90;;;;;;7391527;19;20168;-82
2022/10/08 04:05:58;;;;;;;8.27;6.50;;;16.70;99.90;;;;;;7388698;19;20166;-83
2022/10/08 04:08:24;;;;;;;9.82;5.70;;;16.70;99.90;;;;;;7384961;19;20169;-82
2022/10/08 04:10:50;;;;;;;7.57;5.32;;;16.70;99.90;;;;;;7392457;19;20711;-82
2022/10/08 04:13:17;;;;;;;8.23;5.97;;;16.70;99.90;;;;;;7388974;19;20504;-83
2022/10/08 04:15:44;;;;;;;7.93;5.68;;;16.60;99.90;;;;;;7389670;19;20135;-81
2022/10/08 04:18:12;;;;;;;7.03;4.90;;;16.40;99.90;;;;;;7389063;19;20645;-81
2022/10/08 04:20:42;;;;;;;6.45;4.47;;;16.10;99.90;;;;;;7389849;19;20135;-82
2022/10/08 04:23:09;;;;;;;8.70;4.78;;;16.10;99.90;;;;;;7390449;19;20134;-82
2022/10/08 04:25:35;;;;;;;6.68;5.00;;;16.20;99.90;;;;;;7391737;19;20511;-82
2022/10/08 04:28:02;;;;;;;7.82;4.90;;;16.30;99.90;;;;;;7390514;19;20155;-81
2022/10/08 04:30:29;;;;;;;7.78;4.20;;;16.40;99.90;;;;;;7389476;19;20154;-83
2022/10/08 04:32:55;;;;;;;8.07;4.40;;;16.40;99.90;;;;;;7389281;19;20147;-81
2022/10/08 04:35:21;;;;;;;5.00;3.90;;;16.40;99.90;;;;;;7389982;19;20517;-82
2022/10/08 04:37:47;;;;;;;9.52;4.30;;;16.60;99.90;;;;;;7389866;19;20143;-82
2022/10/08 04:40:13;;;;;;;8.63;4.93;;;16.70;99.90;;;;;;7391200;19;20209;-81
2022/10/08 04:42:38;;;;;;;7.50;3.92;;;16.60;99.90;;;;;;7389271;19;20206;-82
2022/10/08 04:45:05;;;;;;;5.22;4.00;;;16.80;99.90;;;;;;7386800;19;20524;-82
2022/10/08 04:47:30;;;;;;;8.05;4.60;;;16.80;99.90;;;;;;7389674;19;20620;-82
2022/10/08 04:49:56;;;;;;;6.38;4.68;;;16.80;99.90;;;;;;7387876;19;20147;-81
2022/10/08 04:52:22;;;;;;;7.13;4.15;;;17.00;99.90;;;;;;7389765;19;20635;-82
2022/10/08 04:54:48;;;;;;;6.45;4.75;;;16.90;99.90;;;;;;7387763;19;20174;-81
2022/10/08 04:57:13;;;;;;;6.45;4.70;;;16.90;99.90;;;;;;7389422;19;20146;-82
2022/10/08 04:59:39;;;;;;;8.23;4.97;;;17.00;99.90;;;;;;7387064;19;20142;-83
2022/10/08 05:02:05;;;;;;;8.73;5.60;;;16.90;99.90;;;;;;7388754;19;20556;-82
2022/10/08 05:04:30;;;;;;;9.50;5.45;;;16.80;99.90;;;;;;7386306;19;20825;-82
2022/10/08 05:06:56;;;;;;;7.22;4.63;;;16.70;99.90;;;;;;7389688;19;20519;-83
2022/10/08 05:09:22;;;;;;;5.80;4.40;;;16.80;99.90;;;;;;7387667;19;20183;-83
2022/10/08 05:11:49;;;;;;;7.40;4.57;;;16.70;99.90;;;;;;7390975;19;20167;-83
2022/10/08 05:14:15;;;;;;;7.43;4.20;;;16.60;99.90;;;;;;7388308;19;20467;-82
2022/10/08 05:16:41;;;;;;;7.10;4.82;;;16.60;99.90;;;;;;7387712;19;20138;-83
2022/10/08 05:19:07;;;;;;;7.05;4.20;;;16.80;99.90;;;;;;7387688;19;20151;-82
2022/10/08 05:21:33;;;;;;;10.73;4.50;;;16.60;99.90;;;;;;7388978;19;20144;-82
2022/10/08 05:24:04;;;;;;;6.72;4.22;;;16.80;99.90;;;;;;7386260;19;20147;-80
2022/10/08 05:26:33;;;;;;;7.70;4.75;;;16.90;99.90;;;;;;7388129;19;20158;-81
2022/10/08 05:28:59;;;;;;;7.85;4.65;;;16.90;99.90;;;;;;7388522;19;20142;-82
2022/10/08 05:31:27;;;;;;;7.28;4.22;;;16.90;99.90;;;;;;7387301;19;20139;-82
2022/10/08 05:33:52;;;;;;;6.28;4.70;;;16.80;99.90;;;;;;7390001;19;20145;-82
2022/10/08 05:36:26;;;;;;;9.07;5.30;;;16.80;99.90;;;;;;7387587;19;20537;-81
2022/10/08 05:38:55;;;;;;;6.57;4.43;;;16.90;99.90;;;;;;7385782;19;20146;-82
2022/10/08 05:41:23;;;;;;;5.85;4.00;;;16.90;99.90;;;;;;7387337;19;20146;-83
2022/10/08 05:43:49;;;;;;;7.32;4.03;;;16.80;99.90;;;;;;7384855;19;20142;-82
2022/10/08 05:46:16;;;;;;;6.80;4.68;;;16.80;99.90;;;;;;7386960;19;20167;-82
2022/10/08 05:48:42;;;;;;;6.50;4.30;;;16.80;99.90;;;;;;7385654;19;20135;-82
2022/10/08 05:51:17;;;;;;;7.78;4.03;;;16.90;99.90;;;;;;7386987;19;20520;-82
2022/10/08 05:53:47;;;;;;;6.40;4.25;;;16.80;99.90;;;;;;7388371;19;20147;-82
2022/10/08 05:56:14;;;;;;;7.50;4.10;;;16.90;99.90;;;;;;7394997;19;20706;-82
2022/10/08 05:58:41;;;;;;;5.65;4.20;;;16.80;99.90;;;;;;7390614;19;20154;-82
2022/10/08 06:01:27;;;;;;;5.15;3.65;;;16.90;99.90;;;;;;7395682;19;20162;-82
2022/10/08 06:03:56;;;;;;;5.15;3.80;;;16.80;99.90;;;;;;7392332;19;20184;-82
2022/10/08 06:06:23;;;;;;;6.00;3.67;;;16.80;99.90;;;;;;7393046;19;20645;-81
2022/10/08 06:08:57;;;;;;;6.50;4.00;;;16.80;99.90;;;;;;7393762;19;20651;-82
2022/10/08 06:11:24;;;;;;;6.50;3.47;;;16.80;99.90;;;;;;7393837;19;20170;-81
2022/10/08 06:13:54;;;;;;;6.90;3.70;;;16.90;99.90;;;;;;7394592;19;20134;-82
2022/10/08 06:16:20;;;;;;;5.75;3.88;;;16.80;99.90;;;;;;7396737;19;20669;-81
2022/10/08 06:18:46;;;;;;;8.70;4.18;;;16.70;99.90;;;;;;7395532;19;20608;-82
2022/10/08 06:21:17;;;;;;;5.18;3.70;;;16.80;99.90;;;;;;7397037;19;20560;-82
2022/10/08 06:23:55;;;;;;;5.40;3.65;;;16.80;99.90;;;;;;7394434;19;20150;-82
2022/10/08 06:26:22;;;;;;;6.20;3.80;;;16.80;99.90;;;;;;7394752;19;20142;-83
2022/10/08 06:28:48;;;;;;;6.20;4.05;;;16.70;99.90;;;;;;7396529;19;20149;-83
2022/10/08 06:31:16;;;;;;;5.80;3.92;;;16.70;99.90;;;;;;7395457;19;20545;-84
2022/10/08 06:33:41;;;;;;;7.20;3.55;;;16.80;99.90;;;;;;7395499;19;20147;-82
2022/10/08 06:36:19;;;;;;;5.93;3.50;;;16.90;99.90;;;;;;7394105;19;20146;-82
2022/10/08 06:38:53;;;;;;;6.43;3.95;;;16.90;99.90;;;;;;7392852;19;20611;-82
2022/10/08 06:41:19;;;;;;;8.52;4.50;;;16.80;99.90;;;;;;7394190;19;20156;-83
2022/10/08 06:43:46;;;;;;;7.47;4.40;;;16.90;99.90;;;;;;7392292;19;20146;-82
2022/10/08 06:46:12;;;;;;;5.50;3.63;;;16.80;99.90;;;;;;7394045;19;20150;-83
2022/10/08 06:48:38;;;;;;;9.05;4.40;;;16.90;99.90;;;;;;7391295;19;20146;-83
2022/10/08 06:51:12;;;;;;;6.05;3.75;;;16.90;99.90;;;;;;7395110;19;20218;-81
2022/10/08 06:53:39;;;;;;;7.63;3.80;;;16.80;99.90;;;;;;7394964;19;20138;-82
2022/10/08 06:56:09;;;;;;;6.53;3.85;;;16.80;99.90;;;;;;7407925;19;20156;-82
2022/10/08 06:58:36;;;;;;;8.05;3.47;;;16.90;99.90;;;;;;7392497;19;20154;-82
2022/10/08 07:01:13;;;;;;;4.10;3.55;;;16.90;99.90;;;;;;7390420;19;20143;-81
2022/10/08 07:03:39;;;;;;;7.55;3.60;;;16.80;99.90;;;;;;7393050;19;20619;-81
2022/10/08 07:06:07;;;;;;;6.75;3.55;;;16.70;99.90;;;;;;7389522;19;20162;-81
2022/10/08 07:08:34;;;;;;;5.68;3.40;;;16.70;99.90;;;;;;7394265;19;20159;-81
2022/10/08 07:11:15;;;;;;;6.03;3.10;;;16.70;99.90;;;;;;7395496;19;20162;-81
2022/10/08 07:13:41;;;;;;;5.65;3.33;;;16.60;99.90;;;;;;7394914;19;20186;-81
2022/10/08 07:16:14;;;;;;;6.78;3.10;;;16.70;99.90;;;;;;7395226;19;20139;-80
2022/10/08 07:18:40;;;;;;;7.78;3.40;;;16.80;99.90;;;;;;7392326;19;20178;-81
2022/10/08 07:21:07;;;;;;;4.47;2.70;;;16.80;99.90;;;;;;7401867;19;20138;-82
2022/10/08 07:23:33;;;;;;;7.10;2.75;;;16.90;99.90;;;;;;7393680;19;20344;-81
2022/10/08 07:26:05;;;;;;;6.00;3.05;;;16.80;99.90;;;;;;7394493;19;20147;-81
2022/10/08 07:28:34;;;;;;;5.95;3.08;;;16.80;99.90;;;;;;7393181;19;20151;-81
2022/10/08 07:31:04;;;;;;;6.70;3.00;;;16.90;99.90;;;;;;7392817;19;20153;-81
2022/10/08 07:33:31;;;;;;;4.03;3.17;;;16.90;99.90;;;;;;7392930;19;20155;-81
2022/10/08 07:36:09;;;;;;;5.30;3.20;;;16.90;99.90;;;;;;7390928;19;20603;-81
2022/10/08 07:38:35;;;;;;;4.60;3.13;;;17.10;99.90;;;;;;7394586;19;20151;-81
2022/10/08 07:41:00;;;;;;;6.75;3.22;;;17.20;99.90;;;;;;7390106;19;20142;-80
2022/10/08 07:43:26;;;;;;;6.32;2.90;;;17.20;99.90;;;;;;7391601;19;20154;-82
2022/10/08 07:45:52;;;;;;;8.18;2.92;;;17.20;99.90;;;;;;7391405;19;20145;-81
2022/10/08 07:48:18;;;;;;;7.30;2.78;;;17.30;99.90;;;;;;7391060;19;20238;-81
2022/10/08 07:50:45;;;;;;;5.53;2.80;;;17.30;99.90;;;;;;7388836;19;20241;-78
2022/10/08 07:53:11;;;;;;;7.47;3.75;;;17.40;99.90;;;;;;7391613;19;20142;-78
2022/10/08 07:55:36;;;;;;;4.38;2.83;;;17.30;99.90;;;;;;7390394;19;20134;-79
2022/10/08 07:58:03;;;;;;;4.05;2.30;;;17.20;99.90;;;;;;7387836;19;20234;-77
2022/10/08 08:00:29;;;;;;;7.70;4.55;;;17.00;99.90;;;;;;7388533;19;20149;-77
2022/10/08 08:02:55;;;;;;;6.28;3.17;;;17.20;99.90;;;;;;7391756;19;20194;-78
2022/10/08 08:05:20;;;;;;;4.80;2.55;;;17.10;99.90;;;;;;7384874;19;20194;-77
2022/10/08 08:07:46;;;;;;;4.35;2.47;;;17.30;99.90;;;;;;7385727;19;20154;-78
2022/10/08 08:10:12;;;;;;;2.58;2.33;;;17.40;99.90;;;;;;7381553;19;20155;-77
2022/10/08 08:12:38;;;;;;;4.60;2.45;;;17.40;99.90;;;;;;7385862;19;20131;-80
2022/10/08 08:15:04;;;;;;;3.63;2.00;;;17.40;99.90;;;;;;7387672;19;20142;-75
2022/10/08 08:17:29;;;;;;;4.28;2.40;;;17.20;99.90;;;;;;7386416;19;20221;-75
2022/10/08 08:19:55;;;;;;;5.47;2.63;;;17.00;99.90;;;;;;7384906;19;20527;-74
2022/10/08 08:22:21;;;;;;;4.00;2.70;;;17.30;99.90;;;;;;7387810;19;20324;-75
2022/10/08 08:24:46;;;;;;;6.35;2.47;;;17.20;99.90;;;;;;7385343;19;20194;-73
2022/10/08 08:27:12;;;;;;;5.43;2.42;;;17.20;99.90;;;;;;7386767;19;20131;-76
2022/10/08 08:29:38;;;;;;;4.78;2.10;;;17.10;99.90;;;;;;7387028;19;20146;-74
2022/10/08 08:32:04;;;;;;;5.88;2.22;;;17.00;99.90;;;;;;7391325;19;20132;-73
2022/10/08 08:34:30;;;;;;;5.90;2.78;;;17.00;99.90;;;;;;7389376;19;20167;-75
2022/10/08 08:36:58;;;;;;;3.83;1.70;;;16.90;99.90;;;;;;7395886;19;20721;-77
2022/10/08 08:39:26;;;;;;;5.68;1.77;;;17.00;99.90;;;;;;7388595;19;20126;-75
2022/10/08 08:42:07;;;;;;;4.95;2.00;;;16.70;99.90;;;;;;7390041;19;20228;-77
2022/10/08 08:44:46;;;;;;;4.30;1.55;;;16.90;99.90;;;;;;7394567;19;20505;-77
2022/10/08 08:47:24;;;;;;;2.92;1.55;;;17.10;99.90;;;;;;7392100;19;20135;-75
2022/10/08 08:49:54;;;;;;;6.35;2.40;;;17.10;99.90;;;;;;7391856;19;20135;-79
2022/10/08 08:52:23;;;;;;;5.35;1.90;;;17.10;99.90;;;;;;7391915;19;20150;-80
2022/10/08 08:54:52;;;;;;;3.95;1.60;;;17.10;99.90;;;;;;7390321;19;20244;-76
2022/10/08 08:57:57;;;;;;;3.95;2.00;;;17.00;99.90;;;;;;7388196;19;20139;-82
2022/10/08 09:00:33;;;;;;;4.82;1.83;;;17.30;99.90;;;;;;7390689;19;20610;-81
2022/10/08 09:03:20;;;;;;;5.82;1.80;;;17.50;99.90;;;;;;7390842;19;20146;-83
2022/10/08 09:05:50;;;;;;;6.32;1.83;;;17.60;99.90;;;;;;7387664;19;20167;-79
2022/10/08 09:08:25;;;;;;;6.65;1.80;;;17.50;99.90;;;;;;7395043;19;20135;-77
2022/10/08 09:10:58;;;;;;;3.63;1.75;;;17.40;99.90;;;;;;7388371;19;20590;-75
2022/10/08 09:13:36;;;;;;;4.63;1.80;;;17.30;99.90;;;;;;7382832;19;20238;-75
2022/10/08 09:16:02;;;;;;;4.57;1.65;;;17.40;99.90;;;;;;7386240;19;20221;-76
2022/10/08 09:18:28;;;;;;;6.57;1.67;;;17.40;99.90;;;;;;7387398;19;20621;-74
2022/10/08 09:20:54;;;;;;;6.45;1.92;;;17.50;99.90;;;;;;7389642;19;20135;-75
2022/10/08 09:23:22;;;;;;;4.28;1.67;;;17.70;99.90;;;;;;7390375;19;20138;-74
2022/10/08 09:26:22;;;;;;;4.43;1.48;;;17.90;99.90;;;;;;7388449;19;20142;-75
2022/10/08 09:28:52;;;;;;;4.28;1.50;;;18.00;99.90;;;;;;7385592;19;20135;-74
2022/10/08 09:31:46;;;;;;;4.57;1.20;;;18.10;99.90;;;;;;7387777;19;20138;-75
2022/10/08 09:34:14;;;;;;;4.63;1.80;;;18.10;99.90;;;;;;7385830;19;20145;-75
2022/10/08 09:37:00;;;;;;;4.95;1.45;;;18.00;99.90;;;;;;7385639;19;20150;-75
2022/10/08 09:39:29;;;;;;;6.45;1.70;;;17.90;99.90;;;;;;7382497;19;20154;-76
2022/10/08 09:42:18;;;;;;;4.97;1.30;;;17.80;99.90;;;;;;7385078;19;20146;-74
2022/10/08 09:44:51;;;;;;;2.88;1.08;;;17.90;99.90;;;;;;7383939;19;20130;-74
2022/10/08 09:47:19;;;;;;;3.10;1.30;;;18.00;99.90;;;;;;7384456;19;20146;-74
2022/10/08 09:50:00;;;;;;;9.40;1.60;;;17.90;99.90;;;;;;7382315;19;20131;-74
2022/10/08 09:52:27;;;;;;;5.75;1.50;;;18.00;99.90;;;;;;7385802;19;20479;-74
2022/10/08 09:54:57;;;;;;;4.90;1.13;;;18.10;99.90;;;;;;7383768;19;20246;-74
2022/10/08 09:57:23;;;;;;;5.07;1.55;;;17.80;99.90;;;;;;7383606;19;20234;-75
2022/10/08 09:59:56;;;;;;;3.88;1.52;;;18.00;99.90;;;;;;7383203;19;20187;-75
2022/10/08 10:02:31;;;;;;;4.80;1.80;;;18.00;99.90;;;;;;7385349;19;20130;-74
2022/10/08 10:04:58;;;;;;;5.85;1.77;;;18.10;99.90;;;;;;7381623;19;20873;-73
2022/10/08 10:07:39;;;;;;;4.88;1.80;;;18.20;99.90;;;;;;7387588;19;20119;-73
2022/10/08 10:10:22;;;;;;;5.40;1.60;;;18.20;99.90;;;;;;7384965;19;20227;-74
2022/10/08 10:12:55;;;;;;;5.00;1.70;;;18.10;99.90;;;;;;7384486;19;20151;-74
2022/10/08 10:15:33;;;;;;;4.38;1.40;;;18.30;99.90;;;;;;7383083;19;20147;-73
2022/10/08 10:18:03;;;;;;;3.00;1.63;;;18.50;99.90;;;;;;7385983;19;20259;-73
2022/10/08 10:20:35;;;;;;;4.88;2.13;;;18.60;99.90;;;;;;7383179;19;20150;-75
2022/10/08 10:23:19;;;;;;;5.75;2.00;;;18.40;99.90;;;;;;7382327;19;20131;-77
2022/10/08 10:25:56;;;;;;;5.25;2.30;;;18.10;99.90;;;;;;7382502;19;20471;-75
2022/10/08 10:28:40;;;;;;;5.38;1.65;;;17.90;99.90;;;;;;7381149;19;20134;-76
2022/10/08 10:31:22;;;;;;;5.35;1.75;;;17.90;99.90;;;;;;7384227;19;20127;-75
2022/10/08 10:34:21;;;;;;;5.05;1.88;;;17.90;99.90;;;;;;7383365;19;20152;-74
2022/10/08 10:37:00;;;;;;;6.82;2.22;;;18.00;99.90;;;;;;7377027;19;20185;-75
2022/10/08 10:39:56;;;;;;;2.85;1.42;;;18.00;99.90;;;;;;7383409;19;20592;-75
2022/10/08 10:42:31;;;;;;;7.20;2.15;;;17.80;99.90;;;;;;7392288;19;20142;-75
2022/10/08 10:45:24;;;;;;;4.03;1.92;;;17.90;99.90;;;;;;7389996;19;20154;-76
2022/10/08 10:47:52;;;;;;;4.80;1.60;;;17.80;99.90;;;;;;7393563;19;20181;-75
2022/10/08 10:50:46;;;;;;;5.10;1.90;;;17.90;99.90;;;;;;7391015;19;20139;-75
2022/10/08 10:53:24;;;;;;;4.05;1.30;;;18.00;99.90;;;;;;7389354;19;20134;-75
2022/10/08 10:56:12;;;;;;;4.30;1.30;;;18.10;99.90;;;;;;7392547;19;20149;-74
2022/10/08 10:59:08;;;;;;;4.05;1.67;;;18.00;99.90;;;;;;7392004;19;20135;-75
2022/10/08 11:01:58;;;;;;;4.38;1.35;;;17.90;99.90;;;;;;7390904;19;20145;-74
2022/10/08 11:04:51;;;;;;;3.72;1.60;;;17.80;99.90;;;;;;7393216;19;20151;-76
2022/10/08 11:07:31;;;;;;;3.10;1.38;;;17.80;99.90;;;;;;7393301;19;20143;-75
2022/10/08 11:10:38;;;;;;;4.82;1.10;;;17.80;99.90;;;;;;7395613;19;20488;-75
2022/10/08 11:13:10;;;;;;;5.82;1.60;;;17.90;99.90;;;;;;7401509;19;20148;-78
2022/10/08 11:16:04;;;;;;;6.53;1.42;;;18.00;99.90;;;;;;7394489;19;20138;-79
2022/10/08 11:19:11;;;;;;;5.55;1.67;;;18.30;99.90;;;;;;7392944;19;20591;-80
2022/10/08 11:21:44;;;;;;;2.65;1.88;;;18.40;99.90;;;;;;7390666;19;20179;-80
2022/10/08 11:24:31;;;;;;;3.30;1.70;;;18.60;99.90;;;;;;7391132;19;20131;-79
2022/10/08 11:27:28;;;;;;;3.17;1.48;;;18.50;99.90;;;;;;7396594;19;20478;-79
2022/10/08 11:30:21;;;;;;;4.15;1.80;;;18.70;99.90;;;;;;7393697;19;20476;-78
2022/10/08 11:32:56;;;;;;;6.57;1.95;;;18.70;99.90;;;;;;7392646;19;20154;-78
2022/10/08 11:35:40;;;;;;;6.07;2.08;;;18.60;99.90;;;;;;7392590;19;20138;-78
2022/10/08 11:38:16;;;;;;;8.32;2.08;;;18.50;99.90;;;;;;7392672;19;20235;-77
2022/10/08 11:40:55;;;;;;;4.30;1.45;;;18.60;99.90;;;;;;7393213;19;20142;-80
2022/10/08 11:43:37;;;;;;;4.55;1.50;;;18.50;99.90;;;;;;7395559;19;20638;-78
2022/10/08 11:46:28;;;;;;;5.78;1.30;;;18.70;99.90;;;;;;7392960;19;20138;-79
2022/10/08 11:49:12;;;;;;;6.00;1.60;;;18.50;99.90;;;;;;7392030;19;20134;-78
2022/10/08 11:51:52;;;;;;;4.13;1.33;;;18.70;99.90;;;;;;7392985;19;20588;-79
2022/10/08 11:54:36;;;;;;;4.13;1.38;;;18.70;99.90;;;;;;7394641;19;20154;-79
2022/10/08 11:57:35;;;;;;;3.13;1.23;;;18.60;99.90;;;;;;7393704;19;20147;-77
2022/10/08 12:00:32;;;;;;;4.55;1.45;;;18.50;99.90;;;;;;7393322;19;20600;-76
2022/10/08 12:03:00;;;;;;;3.75;1.65;;;18.50;99.90;;;;;;7391315;19;20885;-77
2022/10/08 12:05:40;;;;;;;6.50;1.30;;;18.50;99.90;;;;;;7389580;19;20178;-78
2022/10/08 12:08:06;;;;;;;5.55;1.55;;;18.60;99.90;;;;;;7390433;19;20140;-78
2022/10/08 12:10:34;;;;;;;3.13;1.10;;;18.70;99.90;;;;;;7386095;19;20194;-79
2022/10/08 12:13:11;;;;;;;3.10;0.90;;;18.80;99.90;;;;;;7387991;19;20126;-78
2022/10/08 12:15:39;;;;;;;4.00;1.40;;;18.90;99.90;;;;;;7388789;19;20134;-78
2022/10/08 12:18:16;;;;;;;3.22;1.30;;;19.00;99.90;;;;;;7389883;19;21149;-78
2022/10/08 12:20:43;;;;;;;4.57;1.33;;;19.00;99.90;;;;;;7389630;19;20368;-78
2022/10/08 12:23:21;;;;;;;2.72;1.08;;;18.90;99.90;;;;;;7386334;19;20134;-76
2022/10/08 12:25:59;;;;;;;4.55;1.27;;;19.00;99.90;;;;;;7389423;19;20171;-77
2022/10/08 12:28:28;;;;;;;4.30;1.30;;;19.20;99.90;;;;;;7389240;19;20142;-78
2022/10/08 12:31:19;;;;;;;3.45;1.30;;;19.20;99.90;;;;;;7389257;19;20138;-79
2022/10/08 12:34:00;;;;;;;2.65;1.05;;;18.90;99.90;;;;;;7389826;19;20521;-77
2022/10/08 12:36:38;;;;;;;4.38;1.48;;;18.90;99.90;;;;;;7390165;19;20146;-79
2022/10/08 12:39:31;;;;;;;3.42;1.30;;;18.90;99.90;;;;;;7389617;19;20627;-78
2022/10/08 12:42:20;;;;;;;3.83;1.15;;;18.70;99.90;;;;;;7389657;19;20153;-78
2022/10/08 12:45:05;;;;;;;5.00;1.38;;;18.70;99.90;;;;;;7387382;19;20194;-77
2022/10/08 12:47:48;;;;;;;3.15;1.05;;;18.80;99.90;;;;;;7391030;19;20142;-78
2022/10/08 12:50:44;;;;;;;7.25;1.42;;;18.90;99.90;;;;;;7392227;19;20135;-78
2022/10/08 12:53:14;;;;;;;3.38;1.23;;;19.00;99.90;;;;;;7391893;19;20138;-78
2022/10/08 12:55:53;;;;;;;4.97;1.40;;;19.30;99.90;;;;;;7390954;19;20138;-78
2022/10/08 12:58:27;;;;;;;5.43;1.13;;;19.30;99.90;;;;;;7386800;19;20154;-76
2022/10/08 13:00:57;;;;;;;2.90;1.20;;;19.30;99.90;;;;;;7389975;19;20215;-78
2022/10/08 13:03:24;;;;;;;4.32;1.10;;;19.30;99.90;;;;;;7386455;19;20210;-79
2022/10/08 13:05:55;;;;;;;3.50;1.05;;;19.20;99.90;;;;;;7385047;19;20158;-78
2022/10/08 13:08:33;;;;;;;1.92;1.02;;;19.00;99.90;;;;;;7387211;19;20142;-78
2022/10/08 13:11:19;;;;;;;3.38;1.13;;;19.00;99.90;;;;;;7387360;19;20171;-79
2022/10/08 13:13:48;;;;;;;3.08;1.08;;;19.00;99.90;;;;;;7387483;19;20135;-78
2022/10/08 13:16:25;;;;;;;3.45;1.10;;;19.20;99.90;;;;;;7389841;19;20126;-77
2022/10/08 13:18:59;;;;;;;2.45;1.00;;;19.10;99.90;;;;;;7387145;19;20126;-78